Time;durP1;ratioP1;P1;durP2;ratioP2;P2;SDS_P1;SDS_P2;PMS_P1;PMS_P2;Temp;Humidity;BMP_temperature;BMP_pressure;BME280_temperature;BME280_humidity;BME280_pressure;Samples;Min_cycle;Max_cycle;Signal;HPM_P1;HPM_P2
2023/09/10 00:01:48;;;;;;;7.90;6.38;;;;;;;;;;4926683;29;20515;-78
2023/09/10 00:04:13;;;;;;;11.13;6.22;;;;;;;;;;4928616;29;20390;-78
2023/09/10 00:06:38;;;;;;;9.77;7.07;;;;;;;;;;4927297;29;20514;-78
2023/09/10 00:09:03;;;;;;;8.20;6.82;;;;;;;;;;4924083;29;20575;-78
2023/09/10 00:11:29;;;;;;;9.32;6.80;;;;;;;;;;4926496;29;20120;-78
2023/09/10 00:13:54;;;;;;;8.80;6.65;;;;;;;;;;4928602;29;20114;-78
2023/09/10 00:16:19;;;;;;;7.85;6.18;;;;;;;;;;4928454;29;20485;-78
2023/09/10 00:18:44;;;;;;;7.57;6.13;;;;;;;;;;4928796;29;20030;-78
2023/09/10 00:21:10;;;;;;;9.05;6.45;;;;;;;;;;4926897;29;20107;-78
2023/09/10 00:23:35;;;;;;;8.48;6.30;;;;;;;;;;4926843;29;20036;-79
2023/09/10 00:26:00;;;;;;;9.32;6.85;;;;;;;;;;4924714;29;20039;-78
2023/09/10 00:28:25;;;;;;;10.65;6.63;;;;;;;;;;4926327;29;20479;-78
2023/09/10 00:30:52;;;;;;;8.52;5.88;;;;;;;;;;4927959;29;20036;-78
2023/09/10 00:33:17;;;;;;;8.90;6.35;;;;;;;;;;4923417;29;20123;-79
2023/09/10 00:35:43;;;;;;;8.85;6.97;;;;;;;;;;4927265;29;20123;-78
2023/09/10 00:38:08;;;;;;;8.38;5.93;;;;;;;;;;4926336;29;20496;-78
2023/09/10 00:40:33;;;;;;;8.05;6.28;;;;;;;;;;4916149;29;20038;-78
2023/09/10 00:42:59;;;;;;;8.70;6.38;;;;;;;;;;4926832;29;20043;-78
2023/09/10 00:45:24;;;;;;;8.32;5.88;;;;;;;;;;4923168;29;20062;-78
2023/09/10 00:47:49;;;;;;;8.75;5.78;;;;;;;;;;4925928;29;20036;-78
2023/09/10 00:50:15;;;;;;;7.20;5.85;;;;;;;;;;4927041;29;20074;-78
2023/09/10 00:52:47;;;;;;;10.40;6.75;;;;;;;;;;4927145;29;20047;-78
2023/09/10 00:55:13;;;;;;;7.32;5.65;;;;;;;;;;4925994;29;20123;-78
2023/09/10 00:57:38;;;;;;;9.07;6.10;;;;;;;;;;4921050;29;20028;-78
2023/09/10 01:00:10;;;;;;;7.38;5.72;;;;;;;;;;4927893;29;20038;-78
2023/09/10 01:02:35;;;;;;;;;;;;;;;;;;4924670;29;20122;-78
2023/09/10 01:05:01;;;;;;;6.78;5.15;;;;;;;;;;4925336;29;19973;-78
2023/09/10 01:07:26;;;;;;;8.63;6.30;;;;;;;;;;4928020;29;20039;-78
2023/09/10 01:09:51;;;;;;;8.10;6.07;;;;;;;;;;4926808;29;20067;-78
2023/09/10 01:12:20;;;;;;;8.13;6.35;;;;;;;;;;4927967;29;20051;-78
2023/09/10 01:15:03;;;;;;;8.50;6.57;;;;;;;;;;4940336;29;20029;-78
2023/09/10 01:17:41;;;;;;;7.68;6.15;;;;;;;;;;4914326;29;20028;-78
2023/09/10 01:20:26;;;;;;;7.03;5.85;;;;;;;;;;4925959;29;20039;-78
2023/09/10 01:22:57;;;;;;;10.27;5.50;;;;;;;;;;4923693;29;20441;-78
2023/09/10 01:25:22;;;;;;;8.23;5.50;;;;;;;;;;4926261;29;20103;-78
2023/09/10 01:27:47;;;;;;;10.05;6.68;;;;;;;;;;4927663;29;20107;-78
2023/09/10 01:30:12;;;;;;;7.38;6.03;;;;;;;;;;4925732;29;20124;-78
2023/09/10 01:32:44;;;;;;;9.30;6.85;;;;;;;;;;4925118;29;20044;-78
2023/09/10 01:35:18;;;;;;;8.38;6.10;;;;;;;;;;4927600;29;20035;-78
2023/09/10 01:37:54;;;;;;;8.65;6.80;;;;;;;;;;4920967;29;20042;-78
2023/09/10 01:40:20;;;;;;;9.27;6.38;;;;;;;;;;4925985;29;20035;-78
2023/09/10 01:42:48;;;;;;;8.68;6.20;;;;;;;;;;4925538;29;20408;-78
2023/09/10 01:45:13;;;;;;;9.18;6.07;;;;;;;;;;4925836;29;20038;-78
2023/09/10 01:47:39;;;;;;;8.73;6.78;;;;;;;;;;4927719;29;20053;-78
2023/09/10 01:50:05;;;;;;;9.25;6.43;;;;;;;;;;4926146;29;20039;-78
2023/09/10 01:52:30;;;;;;;9.18;6.20;;;;;;;;;;4926301;29;20578;-78
2023/09/10 01:54:55;;;;;;;7.88;6.40;;;;;;;;;;4925253;29;20123;-78
2023/09/10 01:57:21;;;;;;;12.68;7.10;;;;;;;;;;4921242;29;20055;-78
2023/09/10 01:59:46;;;;;;;9.35;7.28;;;;;;;;;;4926949;29;20396;-78
2023/09/10 02:02:11;;;;;;;9.40;7.30;;;;;;;;;;4925219;29;20119;-78
2023/09/10 02:04:37;;;;;;;10.75;7.82;;;;;;;;;;4927273;29;20024;-78
2023/09/10 02:07:02;;;;;;;10.80;7.35;;;;;;;;;;4926418;29;20032;-78
2023/09/10 02:09:27;;;;;;;8.38;7.07;;;;;;;;;;4926679;29;20028;-79
2023/09/10 02:11:53;;;;;;;9.93;6.90;;;;;;;;;;4926534;29;20496;-78
2023/09/10 02:14:18;;;;;;;10.10;7.05;;;;;;;;;;4925677;29;20032;-78
2023/09/10 02:16:43;;;;;;;10.82;8.02;;;;;;;;;;4926904;29;20020;-78
2023/09/10 02:19:09;;;;;;;9.52;6.72;;;;;;;;;;4924233;29;20445;-78
2023/09/10 02:21:34;;;;;;;8.98;7.25;;;;;;;;;;4925941;29;20047;-78
2023/09/10 02:24:00;;;;;;;8.25;6.63;;;;;;;;;;4923825;29;20028;-78
2023/09/10 02:26:25;;;;;;;9.18;7.38;;;;;;;;;;4920068;29;20040;-78
2023/09/10 02:28:51;;;;;;;6.97;6.03;;;;;;;;;;4924995;29;20051;-78
2023/09/10 02:31:16;;;;;;;10.57;6.82;;;;;;;;;;4927263;29;20035;-78
2023/09/10 02:33:41;;;;;;;8.80;6.72;;;;;;;;;;4926677;29;20111;-78
2023/09/10 02:36:08;;;;;;;8.50;6.80;;;;;;;;;;4916141;29;20024;-78
2023/09/10 02:38:33;;;;;;;8.80;6.95;;;;;;;;;;4930416;29;20030;-78
2023/09/10 02:40:58;;;;;;;11.38;7.22;;;;;;;;;;4923988;29;20028;-78
2023/09/10 02:43:24;;;;;;;9.48;6.78;;;;;;;;;;4927644;29;20221;-78
2023/09/10 02:45:49;;;;;;;8.80;6.75;;;;;;;;;;4920754;29;20092;-78
2023/09/10 02:48:14;;;;;;;9.88;6.78;;;;;;;;;;4926803;29;20083;-79
2023/09/10 02:50:40;;;;;;;9.73;6.90;;;;;;;;;;4926306;29;20393;-78
2023/09/10 02:53:05;;;;;;;9.43;7.47;;;;;;;;;;4938086;23;20044;-78
2023/09/10 02:55:30;;;;;;;9.85;7.50;;;;;;;;;;4927327;29;20118;-78
2023/09/10 02:57:55;;;;;;;8.40;6.40;;;;;;;;;;4925089;29;20128;-78
2023/09/10 03:00:25;;;;;;;10.40;7.18;;;;;;;;;;4928383;29;20106;-77
2023/09/10 03:02:51;;;;;;;8.30;6.80;;;;;;;;;;4926449;29;20031;-77
2023/09/10 03:05:16;;;;;;;8.65;6.95;;;;;;;;;;4930137;29;20040;-78
2023/09/10 03:07:41;;;;;;;13.40;8.02;;;;;;;;;;4926537;29;20079;-77
2023/09/10 03:10:07;;;;;;;9.35;7.90;;;;;;;;;;4925657;29;20055;-78
2023/09/10 03:12:32;;;;;;;10.23;7.57;;;;;;;;;;4925789;29;20051;-78
2023/09/10 03:14:59;;;;;;;10.45;7.30;;;;;;;;;;4925432;29;20024;-78
2023/09/10 03:17:26;;;;;;;10.02;8.00;;;;;;;;;;4929831;29;20062;-78
2023/09/10 03:19:52;;;;;;;9.40;7.35;;;;;;;;;;4926338;29;20028;-77
2023/09/10 03:22:18;;;;;;;9.57;6.85;;;;;;;;;;4926679;29;20579;-78
2023/09/10 03:24:44;;;;;;;9.10;7.70;;;;;;;;;;4927297;29;20039;-78
2023/09/10 03:27:09;;;;;;;8.98;6.63;;;;;;;;;;4926293;29;20028;-78
2023/09/10 03:29:35;;;;;;;9.48;7.60;;;;;;;;;;4927490;29;20030;-78
2023/09/10 03:32:03;;;;;;;11.73;7.60;;;;;;;;;;4927093;29;20035;-78
2023/09/10 03:34:29;;;;;;;9.80;7.65;;;;;;;;;;4924189;29;20082;-78
2023/09/10 03:36:54;;;;;;;9.52;7.47;;;;;;;;;;4928095;29;20023;-78
2023/09/10 03:39:19;;;;;;;9.90;7.63;;;;;;;;;;4923293;29;20036;-78
2023/09/10 03:41:45;;;;;;;9.20;6.47;;;;;;;;;;4930491;29;20028;-78
2023/09/10 03:44:11;;;;;;;9.38;7.82;;;;;;;;;;4907228;29;20047;-78
2023/09/10 03:46:36;;;;;;;9.15;7.10;;;;;;;;;;4929989;29;20078;-78
2023/09/10 03:49:01;;;;;;;8.80;7.10;;;;;;;;;;4923006;29;20119;-78
2023/09/10 03:51:27;;;;;;;9.55;6.68;;;;;;;;;;4923800;29;20056;-78
2023/09/10 03:53:53;;;;;;;8.95;7.85;;;;;;;;;;4926491;29;20083;-77
2023/09/10 03:56:19;;;;;;;9.27;6.43;;;;;;;;;;4925913;29;20032;-78
2023/09/10 03:58:44;;;;;;;9.35;7.10;;;;;;;;;;4926058;29;20028;-78
2023/09/10 04:01:09;;;;;;;7.47;5.80;;;;;;;;;;4926840;29;20027;-78
2023/09/10 04:03:35;;;;;;;8.07;6.65;;;;;;;;;;4924656;29;20437;-78
2023/09/10 04:06:00;;;;;;;8.52;6.57;;;;;;;;;;4926387;29;20492;-78
2023/09/10 04:08:26;;;;;;;8.10;6.63;;;;;;;;;;4924716;29;20084;-78
2023/09/10 04:10:51;;;;;;;10.45;6.90;;;;;;;;;;4926101;29;20023;-78
2023/09/10 04:13:17;;;;;;;8.10;6.32;;;;;;;;;;4926453;29;20036;-78
2023/09/10 04:15:42;;;;;;;9.32;7.07;;;;;;;;;;4922702;29;20576;-78
2023/09/10 04:18:08;;;;;;;7.90;6.15;;;;;;;;;;4924935;29;20138;-78
2023/09/10 04:20:33;;;;;;;10.35;6.60;;;;;;;;;;4924253;29;20043;-78
2023/09/10 04:22:58;;;;;;;8.45;6.00;;;;;;;;;;4926873;29;20023;-78
2023/09/10 04:25:24;;;;;;;8.43;6.30;;;;;;;;;;4926693;29;20123;-77
2023/09/10 04:27:49;;;;;;;7.97;5.57;;;;;;;;;;4924818;29;20027;-78
2023/09/10 04:30:15;;;;;;;8.40;6.25;;;;;;;;;;4922089;29;20481;-78
2023/09/10 04:32:40;;;;;;;8.27;6.22;;;;;;;;;;4925303;29;20122;-78
2023/09/10 04:35:06;;;;;;;8.65;6.78;;;;;;;;;;4925468;29;20032;-78
2023/09/10 04:37:31;;;;;;;8.65;6.47;;;;;;;;;;4923924;29;20027;-78
2023/09/10 04:39:57;;;;;;;8.45;6.65;;;;;;;;;;4923999;29;20031;-78
2023/09/10 04:42:22;;;;;;;8.50;6.00;;;;;;;;;;4927512;29;20445;-78
2023/09/10 04:44:48;;;;;;;8.23;6.82;;;;;;;;;;4922515;29;20024;-78
2023/09/10 04:47:13;;;;;;;10.77;7.65;;;;;;;;;;4923490;29;20401;-78
2023/09/10 04:49:39;;;;;;;8.63;7.00;;;;;;;;;;4927751;29;20064;-78
2023/09/10 04:52:04;;;;;;;7.47;6.38;;;;;;;;;;4926817;29;20075;-78
2023/09/10 04:54:29;;;;;;;9.93;6.88;;;;;;;;;;4924821;29;20032;-78
2023/09/10 04:56:55;;;;;;;9.50;7.75;;;;;;;;;;4923183;29;20485;-77
2023/09/10 04:59:21;;;;;;;10.93;7.82;;;;;;;;;;4921905;29;20047;-78
2023/09/10 05:01:46;;;;;;;10.63;7.88;;;;;;;;;;4926650;29;20253;-77
2023/09/10 05:04:11;;;;;;;11.80;8.57;;;;;;;;;;4924082;29;20039;-78
2023/09/10 05:06:36;;;;;;;9.13;7.20;;;;;;;;;;4929445;29;20027;-78
2023/09/10 05:09:02;;;;;;;9.52;7.78;;;;;;;;;;4922598;29;20016;-77
2023/09/10 05:11:28;;;;;;;9.45;7.93;;;;;;;;;;4906098;29;20032;-78
2023/09/10 05:13:53;;;;;;;9.55;7.72;;;;;;;;;;4925877;29;20055;-78
2023/09/10 05:16:19;;;;;;;14.13;7.50;;;;;;;;;;4923430;29;20496;-78
2023/09/10 05:18:44;;;;;;;10.52;7.90;;;;;;;;;;4928796;29;20057;-78
2023/09/10 05:21:10;;;;;;;9.63;8.00;;;;;;;;;;4923664;29;20023;-77
2023/09/10 05:23:36;;;;;;;9.18;7.28;;;;;;;;;;4931623;29;20098;-78
2023/09/10 05:26:02;;;;;;;8.43;6.72;;;;;;;;;;4924139;29;20046;-78
2023/09/10 05:28:27;;;;;;;7.75;6.63;;;;;;;;;;4921464;29;20043;-78
2023/09/10 05:30:53;;;;;;;9.75;7.75;;;;;;;;;;4926933;29;20027;-78
2023/09/10 05:33:18;;;;;;;9.35;7.20;;;;;;;;;;4940465;28;20036;-78
2023/09/10 05:35:52;;;;;;;9.18;6.78;;;;;;;;;;4925086;29;20123;-78
2023/09/10 05:38:17;;;;;;;8.63;7.28;;;;;;;;;;4921459;29;20035;-77
2023/09/10 05:40:43;;;;;;;9.90;7.28;;;;;;;;;;4923224;29;20452;-78
2023/09/10 05:43:08;;;;;;;9.73;7.40;;;;;;;;;;4925561;29;20377;-78
2023/09/10 05:45:34;;;;;;;10.40;7.35;;;;;;;;;;4926401;29;20032;-78
2023/09/10 05:47:59;;;;;;;9.63;7.47;;;;;;;;;;4924558;29;20024;-78
2023/09/10 05:50:25;;;;;;;9.40;7.28;;;;;;;;;;4923009;29;20043;-78
2023/09/10 05:52:53;;;;;;;9.38;7.78;;;;;;;;;;4920924;29;20084;-78
2023/09/10 05:55:18;;;;;;;10.15;7.57;;;;;;;;;;4923488;29;20028;-77
2023/09/10 05:57:43;;;;;;;10.23;7.75;;;;;;;;;;4925965;29;20027;-78
2023/09/10 06:00:08;;;;;;;9.73;7.68;;;;;;;;;;4922557;29;20035;-78
2023/09/10 06:02:40;;;;;;;10.50;8.15;;;;;;;;;;4926913;29;20038;-78
2023/09/10 06:05:05;;;;;;;10.00;7.80;;;;;;;;;;4923604;29;20036;-77
2023/09/10 06:07:31;;;;;;;12.23;8.27;;;;;;;;;;4925017;29;20032;-78
2023/09/10 06:09:56;;;;;;;9.25;7.53;;;;;;;;;;4929284;29;20052;-78
2023/09/10 06:12:21;;;;;;;10.30;8.05;;;;;;;;;;4928286;29;20040;-78
2023/09/10 06:14:46;;;;;;;10.10;7.38;;;;;;;;;;4932209;29;20043;-78
2023/09/10 06:17:12;;;;;;;10.05;7.70;;;;;;;;;;4926255;29;20035;-78
2023/09/10 06:19:37;;;;;;;11.48;8.75;;;;;;;;;;4935094;29;20035;-78
2023/09/10 06:22:03;;;;;;;10.13;8.32;;;;;;;;;;4924678;29;20118;-78
2023/09/10 06:24:28;;;;;;;9.52;7.55;;;;;;;;;;4924898;29;20032;-78
2023/09/10 06:26:53;;;;;;;9.07;7.28;;;;;;;;;;4931511;29;20102;-78
2023/09/10 06:29:18;;;;;;;8.95;7.85;;;;;;;;;;4925563;29;20496;-78
2023/09/10 06:31:43;;;;;;;11.82;7.88;;;;;;;;;;4927824;29;20026;-78
2023/09/10 06:34:09;;;;;;;9.65;7.22;;;;;;;;;;4924474;29;20040;-78
2023/09/10 06:36:35;;;;;;;11.05;7.70;;;;;;;;;;4925700;29;20032;-78
2023/09/10 06:39:00;;;;;;;10.45;7.85;;;;;;;;;;4929035;29;20032;-78
2023/09/10 06:41:26;;;;;;;9.82;7.93;;;;;;;;;;4924509;29;20024;-78
2023/09/10 06:43:51;;;;;;;12.63;7.70;;;;;;;;;;4927348;29;20024;-78
2023/09/10 06:46:21;;;;;;;9.15;7.40;;;;;;;;;;4925118;29;20287;-78
2023/09/10 06:48:46;;;;;;;11.20;7.47;;;;;;;;;;4925598;29;20024;-77
2023/09/10 06:51:11;;;;;;;16.80;7.63;;;;;;;;;;4928633;29;20496;-78
2023/09/10 06:53:36;;;;;;;9.68;8.05;;;;;;;;;;4928724;29;20291;-78
2023/09/10 06:56:02;;;;;;;10.82;7.95;;;;;;;;;;4926530;29;20118;-78
2023/09/10 06:58:27;;;;;;;11.45;7.30;;;;;;;;;;4926560;29;20410;-78
2023/09/10 07:00:52;;;;;;;10.73;6.70;;;;;;;;;;4927014;29;20032;-78
2023/09/10 07:03:18;;;;;;;9.00;7.43;;;;;;;;;;4926643;29;20299;-77
2023/09/10 07:05:43;;;;;;;10.68;7.32;;;;;;;;;;4926918;29;20029;-78
2023/09/10 07:08:10;;;;;;;12.95;8.07;;;;;;;;;;4925997;29;20465;-78
2023/09/10 07:10:36;;;;;;;9.07;7.43;;;;;;;;;;4927207;29;20092;-78
2023/09/10 07:13:03;;;;;;;7.95;7.15;;;;;;;;;;4927505;29;20019;-78
2023/09/10 07:15:28;;;;;;;12.23;7.60;;;;;;;;;;4926138;29;20531;-78
2023/09/10 07:17:54;;;;;;;10.43;7.37;;;;;;;;;;4923633;29;20024;-78
2023/09/10 07:20:19;;;;;;;8.85;7.15;;;;;;;;;;4926183;29;20283;-78
2023/09/10 07:22:44;;;;;;;10.93;7.87;;;;;;;;;;4928015;29;20063;-78
2023/09/10 07:25:10;;;;;;;10.10;7.40;;;;;;;;;;4929902;29;20855;-78
2023/09/10 07:27:35;;;;;;;9.45;7.05;;;;;;;;;;4927443;29;20831;-78
2023/09/10 07:30:00;;;;;;;9.13;6.80;;;;;;;;;;4924494;29;20123;-78
2023/09/10 07:32:25;;;;;;;8.80;5.77;;;;;;;;;;4925280;29;20280;-78
2023/09/10 07:34:50;;;;;;;10.33;7.43;;;;;;;;;;4927899;29;20290;-78
2023/09/10 07:37:15;;;;;;;9.00;7.17;;;;;;;;;;4927115;29;20272;-78
2023/09/10 07:39:41;;;;;;;8.57;6.53;;;;;;;;;;4927645;29;20767;-78
2023/09/10 07:42:06;;;;;;;7.60;6.70;;;;;;;;;;4925502;29;20046;-78
2023/09/10 07:44:31;;;;;;;8.45;6.47;;;;;;;;;;4926840;29;20287;-78
2023/09/10 07:46:56;;;;;;;10.02;6.55;;;;;;;;;;4928125;29;20035;-78
2023/09/10 07:49:21;;;;;;;9.60;6.13;;;;;;;;;;4924886;29;20024;-79
2023/09/10 07:51:47;;;;;;;9.20;6.57;;;;;;;;;;4927581;29;20722;-78
2023/09/10 07:54:12;;;;;;;8.10;6.45;;;;;;;;;;4924612;29;20043;-78
2023/09/10 07:56:37;;;;;;;9.33;6.90;;;;;;;;;;4927494;29;20051;-78
2023/09/10 07:59:02;;;;;;;7.67;6.17;;;;;;;;;;4923925;29;20339;-78
2023/09/10 08:01:27;;;;;;;7.20;6.28;;;;;;;;;;4924325;29;20791;-78
2023/09/10 08:03:53;;;;;;;12.25;6.60;;;;;;;;;;4927303;29;20106;-78
2023/09/10 08:06:19;;;;;;;8.38;6.20;;;;;;;;;;4925448;29;20465;-78
2023/09/10 08:08:44;;;;;;;8.95;6.50;;;;;;;;;;4927603;29;20039;-78
2023/09/10 08:11:09;;;;;;;8.68;6.03;;;;;;;;;;4923742;29;20471;-78
2023/09/10 08:13:35;;;;;;;10.38;5.72;;;;;;;;;;4923615;29;20441;-78
2023/09/10 08:16:00;;;;;;;7.27;6.17;;;;;;;;;;4929542;29;20028;-79
2023/09/10 08:18:25;;;;;;;8.15;5.72;;;;;;;;;;4927402;29;20640;-79
2023/09/10 08:20:51;;;;;;;7.23;5.50;;;;;;;;;;4925957;29;20059;-78
2023/09/10 08:23:16;;;;;;;8.60;6.03;;;;;;;;;;4922323;29;20808;-78
2023/09/10 08:25:41;;;;;;;8.30;6.07;;;;;;;;;;4926359;29;20039;-78
2023/09/10 08:28:06;;;;;;;7.63;5.70;;;;;;;;;;4927107;29;20028;-78
2023/09/10 08:30:31;;;;;;;8.23;5.50;;;;;;;;;;4923190;29;20393;-78
2023/09/10 08:32:57;;;;;;;8.13;5.50;;;;;;;;;;4928700;29;20036;-78
2023/09/10 08:35:22;;;;;;;9.48;6.25;;;;;;;;;;4924054;29;20698;-78
2023/09/10 08:37:48;;;;;;;6.82;6.00;;;;;;;;;;4926708;29;20063;-78
2023/09/10 08:40:14;;;;;;;8.55;5.88;;;;;;;;;;4923368;29;20040;-78
2023/09/10 08:42:45;;;;;;;7.78;5.60;;;;;;;;;;4926851;29;20024;-78
2023/09/10 08:45:10;;;;;;;7.60;5.77;;;;;;;;;;4926638;29;20519;-79
2023/09/10 08:47:39;;;;;;;9.45;5.80;;;;;;;;;;4925038;29;20299;-79
2023/09/10 08:50:08;;;;;;;7.22;5.55;;;;;;;;;;4924947;29;20506;-79
2023/09/10 08:52:36;;;;;;;8.88;5.65;;;;;;;;;;4925454;29;20392;-78
2023/09/10 08:55:02;;;;;;;9.38;5.30;;;;;;;;;;4946193;23;20036;-76
2023/09/10 08:57:29;;;;;;;8.18;5.47;;;;;;;;;;4928160;29;20044;-75
2023/09/10 08:59:55;;;;;;;5.90;4.65;;;;;;;;;;4928137;29;20440;-75
2023/09/10 09:02:21;;;;;;;6.85;5.10;;;;;;;;;;4922842;29;20043;-76
2023/09/10 09:04:46;;;;;;;6.95;5.10;;;;;;;;;;4925840;29;20082;-76
2023/09/10 09:07:12;;;;;;;6.23;5.13;;;;;;;;;;4926478;29;20123;-77
2023/09/10 09:09:41;;;;;;;6.10;4.65;;;;;;;;;;4923119;29;20287;-78
2023/09/10 09:12:07;;;;;;;8.30;5.35;;;;;;;;;;4927531;29;20036;-77
2023/09/10 09:14:33;;;;;;;7.13;5.20;;;;;;;;;;4924137;29;20154;-77
2023/09/10 09:16:58;;;;;;;6.45;4.63;;;;;;;;;;4925715;29;20047;-77
2023/09/10 09:19:28;;;;;;;6.80;4.72;;;;;;;;;;4923908;29;20028;-76
2023/09/10 09:21:54;;;;;;;5.95;4.57;;;;;;;;;;4925744;29;20504;-77
2023/09/10 09:24:22;;;;;;;5.57;4.20;;;;;;;;;;4924475;29;20036;-77
2023/09/10 09:26:48;;;;;;;6.75;4.32;;;;;;;;;;4926053;29;20080;-77
2023/09/10 09:29:13;;;;;;;5.93;4.70;;;;;;;;;;4924505;29;20043;-76
2023/09/10 09:31:38;;;;;;;5.93;4.35;;;;;;;;;;4925037;29;20082;-78
2023/09/10 09:34:04;;;;;;;5.68;4.35;;;;;;;;;;4923986;29;20555;-75
2023/09/10 09:36:36;;;;;;;6.95;4.60;;;;;;;;;;4924993;29;20103;-76
2023/09/10 09:39:07;;;;;;;6.53;4.30;;;;;;;;;;4926376;29;20040;-76
2023/09/10 09:41:33;;;;;;;6.30;4.57;;;;;;;;;;4925577;29;20040;-75
2023/09/10 09:43:58;;;;;;;6.97;4.32;;;;;;;;;;4929500;29;20503;-76
2023/09/10 09:46:30;;;;;;;7.03;4.53;;;;;;;;;;4930122;29;20032;-75
2023/09/10 09:48:55;;;;;;;;;;;;;;;;;;4929033;29;20031;-76
2023/09/10 09:51:21;;;;;;;5.45;3.97;;;;;;;;;;4926115;29;19915;-77
2023/09/10 09:53:46;;;;;;;6.32;4.20;;;;;;;;;;4928212;29;20032;-77
2023/09/10 09:56:15;;;;;;;5.77;4.50;;;;;;;;;;4927967;29;20571;-76
2023/09/10 09:58:40;;;;;;;7.53;5.18;;;;;;;;;;4928696;29;20295;-76
2023/09/10 10:01:06;;;;;;;6.40;4.37;;;;;;;;;;4927255;29;20032;-77
2023/09/10 10:03:32;;;;;;;6.43;4.05;;;;;;;;;;4930087;29;20279;-77
2023/09/10 10:05:57;;;;;;;6.28;4.35;;;;;;;;;;4930021;29;20513;-76
2023/09/10 10:08:26;;;;;;;6.03;4.10;;;;;;;;;;4927012;29;20114;-76
2023/09/10 10:10:51;;;;;;;6.53;4.50;;;;;;;;;;4929129;29;20030;-77
2023/09/10 10:13:17;;;;;;;7.00;3.60;;;;;;;;;;4926323;29;20397;-76
2023/09/10 10:15:44;;;;;;;5.95;4.03;;;;;;;;;;4933002;29;20362;-77
2023/09/10 10:18:10;;;;;;;6.20;4.32;;;;;;;;;;4926188;29;20027;-76
2023/09/10 10:20:36;;;;;;;5.63;3.88;;;;;;;;;;4924696;29;20035;-76
2023/09/10 10:23:02;;;;;;;7.53;4.00;;;;;;;;;;4930169;29;20032;-76
2023/09/10 10:25:28;;;;;;;7.88;4.15;;;;;;;;;;4927418;29;20032;-76
2023/09/10 10:27:54;;;;;;;5.65;3.75;;;;;;;;;;4928907;29;20028;-76
2023/09/10 10:30:20;;;;;;;5.00;3.95;;;;;;;;;;4925464;29;20043;-76
2023/09/10 10:32:47;;;;;;;7.25;4.25;;;;;;;;;;4928306;29;20036;-76
2023/09/10 10:35:13;;;;;;;5.47;4.15;;;;;;;;;;4928230;29;20488;-76
2023/09/10 10:37:49;;;;;;;5.78;4.18;;;;;;;;;;4927078;29;20063;-77
2023/09/10 10:40:19;;;;;;;4.75;3.72;;;;;;;;;;4926165;29;20044;-76
2023/09/10 10:42:44;;;;;;;4.85;3.58;;;;;;;;;;4932156;29;20060;-77
2023/09/10 10:45:10;;;;;;;7.33;4.20;;;;;;;;;;4926474;29;20032;-77
2023/09/10 10:47:41;;;;;;;8.55;4.00;;;;;;;;;;4924086;29;20032;-77
2023/09/10 10:50:08;;;;;;;6.75;3.95;;;;;;;;;;4926524;29;20131;-77
2023/09/10 10:52:35;;;;;;;6.45;3.53;;;;;;;;;;4925826;29;20046;-77
2023/09/10 10:55:00;;;;;;;4.95;3.50;;;;;;;;;;4928730;29;20032;-77
2023/09/10 10:57:26;;;;;;;6.03;3.63;;;;;;;;;;4928211;29;20561;-77
2023/09/10 10:59:52;;;;;;;5.20;3.95;;;;;;;;;;4925273;29;20096;-76
2023/09/10 11:02:24;;;;;;;6.65;3.80;;;;;;;;;;4927867;29;20070;-77
2023/09/10 11:04:53;;;;;;;6.50;4.22;;;;;;;;;;4929430;29;20111;-76
2023/09/10 11:07:18;;;;;;;6.47;3.95;;;;;;;;;;4927751;29;20039;-76
2023/09/10 11:09:43;;;;;;;6.40;3.60;;;;;;;;;;4928974;29;20027;-76
2023/09/10 11:12:09;;;;;;;7.85;4.43;;;;;;;;;;4928341;29;20496;-76
2023/09/10 11:14:53;;;;;;;4.97;3.47;;;;;;;;;;4925319;29;20028;-77
2023/09/10 11:17:22;;;;;;;5.75;3.15;;;;;;;;;;4926004;29;20401;-77
2023/09/10 11:19:47;;;;;;;5.93;3.45;;;;;;;;;;4928684;29;20052;-77
2023/09/10 11:22:12;;;;;;;7.73;3.60;;;;;;;;;;4928352;29;20074;-77
2023/09/10 11:24:39;;;;;;;5.78;3.55;;;;;;;;;;4927380;29;20102;-77
2023/09/10 11:27:17;;;;;;;5.15;3.80;;;;;;;;;;4927615;29;20051;-77
2023/09/10 11:29:42;;;;;;;5.63;3.85;;;;;;;;;;4925107;29;20024;-76
2023/09/10 11:32:15;;;;;;;5.57;3.90;;;;;;;;;;4927300;29;20040;-76
2023/09/10 11:34:40;;;;;;;7.57;4.72;;;;;;;;;;4926595;29;20035;-77
2023/09/10 11:37:06;;;;;;;4.87;3.70;;;;;;;;;;4928917;29;20027;-77
2023/09/10 11:39:32;;;;;;;6.20;4.00;;;;;;;;;;4925296;29;20040;-77
2023/09/10 11:41:59;;;;;;;5.57;4.20;;;;;;;;;;4925170;29;20031;-76
2023/09/10 11:44:24;;;;;;;5.65;4.20;;;;;;;;;;4925726;29;20035;-76
2023/09/10 11:46:51;;;;;;;4.97;3.83;;;;;;;;;;4928349;29;20031;-77
2023/09/10 11:49:17;;;;;;;7.22;4.10;;;;;;;;;;4925188;29;20040;-76
2023/09/10 11:51:42;;;;;;;6.82;4.15;;;;;;;;;;4931623;29;20090;-78
2023/09/10 11:54:07;;;;;;;5.23;4.10;;;;;;;;;;4928438;29;20464;-76
2023/09/10 11:56:35;;;;;;;6.25;3.90;;;;;;;;;;4924386;29;20756;-77
2023/09/10 11:59:01;;;;;;;7.28;4.22;;;;;;;;;;4927557;29;20086;-75
2023/09/10 12:01:26;;;;;;;5.18;3.75;;;;;;;;;;4924054;29;20032;-76
2023/09/10 12:03:51;;;;;;;5.28;4.05;;;;;;;;;;4929074;29;20106;-77
2023/09/10 12:06:17;;;;;;;5.83;3.97;;;;;;;;;;4927286;29;20124;-76
2023/09/10 12:08:43;;;;;;;5.97;3.83;;;;;;;;;;4924122;29;20032;-77
2023/09/10 12:11:09;;;;;;;5.03;4.13;;;;;;;;;;4924109;29;20050;-77
2023/09/10 12:13:36;;;;;;;5.47;3.97;;;;;;;;;;4924452;29;20032;-77
2023/09/10 12:16:02;;;;;;;4.70;3.92;;;;;;;;;;4929072;29;20118;-77
2023/09/10 12:18:28;;;;;;;4.55;3.65;;;;;;;;;;4924463;29;20642;-77
2023/09/10 12:20:53;;;;;;;5.95;4.20;;;;;;;;;;4928325;29;20036;-78
2023/09/10 12:23:18;;;;;;;5.17;4.00;;;;;;;;;;4927369;29;20032;-76
2023/09/10 12:25:52;;;;;;;5.93;3.58;;;;;;;;;;4925680;29;20343;-77
2023/09/10 12:28:17;;;;;;;6.20;4.07;;;;;;;;;;4925475;29;20036;-77
2023/09/10 12:30:42;;;;;;;5.57;3.57;;;;;;;;;;4925290;29;20511;-76
2023/09/10 12:33:07;;;;;;;4.80;3.55;;;;;;;;;;4928179;29;20272;-77
2023/09/10 12:35:34;;;;;;;7.33;3.67;;;;;;;;;;4929307;29;20404;-77
2023/09/10 12:38:00;;;;;;;4.75;3.53;;;;;;;;;;4923743;29;20507;-77
2023/09/10 12:40:25;;;;;;;6.13;3.85;;;;;;;;;;4924505;29;20032;-76
2023/09/10 12:42:50;;;;;;;4.65;3.80;;;;;;;;;;4927732;29;20404;-77
2023/09/10 12:45:16;;;;;;;5.45;3.58;;;;;;;;;;4927061;29;20034;-77
2023/09/10 12:47:42;;;;;;;4.68;3.78;;;;;;;;;;4922365;29;20032;-78
2023/09/10 12:50:07;;;;;;;4.53;3.65;;;;;;;;;;4923316;29;20115;-77
2023/09/10 12:52:33;;;;;;;4.60;3.65;;;;;;;;;;4924314;29;20039;-77
2023/09/10 12:54:58;;;;;;;5.60;3.70;;;;;;;;;;4925989;29;20540;-77
2023/09/10 12:57:23;;;;;;;4.67;3.47;;;;;;;;;;4926161;29;20044;-77
2023/09/10 12:59:53;;;;;;;4.80;3.63;;;;;;;;;;4930347;29;20275;-77
2023/09/10 13:02:21;;;;;;;4.72;3.75;;;;;;;;;;4925258;29;20385;-77
2023/09/10 13:04:46;;;;;;;4.72;3.60;;;;;;;;;;4923318;29;20059;-78
2023/09/10 13:07:12;;;;;;;6.83;3.30;;;;;;;;;;4925561;29;20499;-77
2023/09/10 13:09:38;;;;;;;8.38;3.40;;;;;;;;;;4926808;29;20512;-77
2023/09/10 13:12:03;;;;;;;5.45;3.60;;;;;;;;;;4926316;29;20036;-77
2023/09/10 13:14:28;;;;;;;6.82;3.50;;;;;;;;;;4925247;29;20024;-77
2023/09/10 13:16:56;;;;;;;5.60;3.77;;;;;;;;;;4930864;29;20040;-77
2023/09/10 13:19:22;;;;;;;7.70;3.50;;;;;;;;;;4924603;29;20500;-77
2023/09/10 13:21:47;;;;;;;5.97;3.20;;;;;;;;;;4926537;29;20039;-77
2023/09/10 13:24:12;;;;;;;6.30;4.03;;;;;;;;;;4926648;29;20669;-77
2023/09/10 13:26:37;;;;;;;5.50;4.00;;;;;;;;;;4927399;29;20029;-76
2023/09/10 13:29:02;;;;;;;4.50;3.50;;;;;;;;;;4923906;29;20047;-77
2023/09/10 13:31:28;;;;;;;5.10;3.70;;;;;;;;;;4922605;29;20047;-78
2023/09/10 13:33:53;;;;;;;4.40;3.40;;;;;;;;;;4924727;29;20036;-78
2023/09/10 13:36:18;;;;;;;5.73;3.43;;;;;;;;;;4925925;29;20042;-78
2023/09/10 13:38:43;;;;;;;4.97;3.60;;;;;;;;;;4924476;29;20276;-78
2023/09/10 13:41:09;;;;;;;4.73;3.20;;;;;;;;;;4924639;29;20083;-77
2023/09/10 13:43:34;;;;;;;4.73;3.63;;;;;;;;;;4927560;29;20036;-77
2023/09/10 13:45:59;;;;;;;4.73;3.20;;;;;;;;;;4925550;29;20032;-78
2023/09/10 13:48:24;;;;;;;7.20;4.07;;;;;;;;;;4923318;29;20035;-78
2023/09/10 13:50:50;;;;;;;6.53;3.60;;;;;;;;;;4924215;29;20036;-77
2023/09/10 13:53:15;;;;;;;6.40;3.53;;;;;;;;;;4926467;29;20031;-76
2023/09/10 13:55:40;;;;;;;5.03;3.50;;;;;;;;;;4927131;29;20032;-77
2023/09/10 13:58:06;;;;;;;7.23;3.67;;;;;;;;;;4924249;29;20024;-77
2023/09/10 14:00:31;;;;;;;6.43;3.17;;;;;;;;;;4922547;29;20504;-77
2023/09/10 14:02:56;;;;;;;3.60;2.93;;;;;;;;;;4925579;29;20276;-77
2023/09/10 14:05:21;;;;;;;5.13;3.40;;;;;;;;;;4925692;29;20419;-76
2023/09/10 14:07:46;;;;;;;7.00;3.17;;;;;;;;;;4924872;29;20047;-77
2023/09/10 14:10:12;;;;;;;5.07;3.40;;;;;;;;;;4922738;29;20036;-79
2023/09/10 14:12:37;;;;;;;6.03;3.07;;;;;;;;;;4928272;29;20310;-78
2023/09/10 14:15:02;;;;;;;8.57;3.87;;;;;;;;;;4922694;29;20036;-77
2023/09/10 14:17:27;;;;;;;5.82;3.15;;;;;;;;;;4924474;29;20118;-76
2023/09/10 14:19:53;;;;;;;7.97;3.60;;;;;;;;;;4925136;29;20039;-77
2023/09/10 14:22:18;;;;;;;4.73;3.20;;;;;;;;;;4925630;29;20032;-76
2023/09/10 14:24:43;;;;;;;4.77;3.23;;;;;;;;;;4929410;29;20283;-77
2023/09/10 14:27:08;;;;;;;5.80;3.50;;;;;;;;;;4926208;29;20043;-77
2023/09/10 14:29:34;;;;;;;6.47;3.50;;;;;;;;;;4926012;29;20066;-77
2023/09/10 14:31:59;;;;;;;4.43;2.90;;;;;;;;;;4928568;29;20078;-78
2023/09/10 14:34:24;;;;;;;7.18;3.15;;;;;;;;;;4928780;29;20549;-77